Historyczne dane pomiarowe

Dodano dane terminowe – wersja testowa.

Dane z okresu 1951-2019

Wersja bazy: 1.34 [2019-03-16, lista zmian], aktualizacja planowana na 2019-04-15

Dane meteo z obszaru Polski uzyskane na podstawie danych udostępnionych przez Instytut Meteorologii i Gospodarki Wodnej – Państwowy Instytut Badawczy.

 

Wybierz Datę:    

       

TemperaturaWilgotnośćWiatrCiśnienieOpadyŚniegCzas trwania zjawisk
 Stacja t tx tn tng RH VA  wxwx mslp ppp RRR   cm mm wxwxwxwxwxwxwx
1961-08-14 14.2 18.7 9.2 7.6 83.0- 3.0 1.0---- 0.0------------
1961-08-13 14.5 16.7 13.9 13.9 85.3- 7.3 3.3---- 0.0------------
1961-08-12 17.2 22.3 15.1 15.9 88.8- 6.3 0.7---- 5.8------------
1961-08-11 19.4 23.7 16.7 15.3 91.8- 6.0 2.3---- 18.6------------
1961-08-10 21.5 27.0 15.6 15.7 82.8- 5.3 2.0---- 19.5------------
1961-08-09 22.1 28.7 15.6 13.7 77.0- 3.0 1.7---- 1.0------------
1961-08-08 18.9 23.7 13.8 11.3 69.8- 3.0 1.3---- 0.0------------
1961-08-07 21.3 26.2 17.3 15.1 78.3- 5.0 1.7---- 0.2------------
1961-08-06 24.7 31.0 16.0 14.1 61.3- 0.7 3.3---- 0.0------------
1961-08-05 18.7 23.7 14.5 13.4 78.3- 4.0 3.3---- 0.0------------
1961-08-04 15.9 20.5 8.7 6.4 73.8- 4.3 2.0---- 0.0------------
1961-08-03 15.7 20.7 13.2 12.9 85.5- 5.3 2.3---- 0.0------------
1961-08-02 19.4 26.0 11.6 8.8 68.8- 1.3 2.0---- 0.0------------
1961-08-01 13.6 18.4 11.9 11.7 89.0- 6.0 4.7---- 1.4------------
1961-07-31 14.0 16.3 12.5 12.2 92.8- 7.7 4.7---- 5.2------------
1961-07-30 12.8 14.7 11.7 11.4 98.5- 8.0 2.3---- 30.0------------
1961-07-29 14.3 19.2 12.7 12.6 88.0- 6.7 2.0---- 0.6------------
1961-07-28 17.3 22.7 15.5 14.4 87.3- 7.0 2.7---- 23.4------------
1961-07-27 20.6 25.7 14.6 13.1 61.5- 6.7 3.3---- 0.0------------
1961-07-26 16.9 21.8 11.7 9.8 74.8- 7.3 4.3---- 0.0------------
1961-07-25 14.2 17.2 9.6 8.0 85.8- 8.0 2.0---- 0.0------------
1961-07-24 13.9 18.5 12.0 10.4 84.5- 5.7 3.7---- 0.0------------
1961-07-23 14.9 18.6 12.4 12.7 85.8- 7.3 3.7---- 0.0------------
1961-07-22 14.9 20.2 13.1 12.7 91.3- 7.3 4.3---- 12.4------------
1961-07-21 15.7 19.0 11.2 9.0 84.0- 7.0 3.7---- 2.4------------
1961-07-20 15.6 21.7 9.4 7.5 83.5- 3.3 1.0---- 3.1------------
1961-07-19 14.2 20.3 10.3 8.5 88.3- 5.0 2.7---- 0.5------------
1961-07-18 13.5 18.1 10.1 9.0 95.3- 7.0 2.7---- 2.2------------
1961-07-17 15.3 22.5 10.1 8.3 79.8- 4.3 1.0---- 0.6------------
1961-07-16 13.6 17.0 12.2 10.9 98.8- 5.3 0.3---- 8.8------------
1961-07-15 16.8 22.4 11.7 9.9 82.5- 4.0 2.3---- 5.4------------
1961-07-14 15.4 19.0 14.4 13.1 78.3- 7.0 4.3---- 0.0------------
1961-07-13 20.8 29.0 14.6 13.6 80.8- 4.3 3.3---- 4.4------------
1961-07-12 18.8 26.2 13.2 10.9 84.8- 4.7 1.0---- 0.0------------
1961-07-11 16.3 20.7 10.6 9.3 69.8- 2.7 2.3---- 13.8------------
1961-07-10 13.7 18.5 10.6 9.3 76.8- 6.7 3.7---- 0.4------------
1961-07-09 15.7 23.7 10.7 9.0 73.5- 6.3 2.0---- 0.0------------
1961-07-08 15.4 21.3 8.7 6.5 69.8- 3.3 2.7---- 0.0------------
1961-07-07 12.7 17.4 9.5 8.3 82.3- 7.0 3.7---- 2.6------------
1961-07-06 13.3 17.2 7.7 6.3 80.0- 4.0 5.0---- 0.2------------
1961-07-05 14.0 17.7 12.4 12.8 72.8- 4.0 5.0---- 0.0------------
1961-07-04 19.0 24.2 15.3 15.7 85.5- 7.0 3.3---- 1.1------------
1961-07-03 24.1 31.2 11.0 9.6 52.8- 0.3 1.0---- 0.0------------
1961-07-02 22.0 28.7 11.2 9.1 63.8- 0.0 0.7---- 0.0------------
1961-07-01 19.2 25.8 10.8 9.3 75.3- 1.7 1.3---- 0.0------------
1961-06-30 18.3 24.9 10.3 7.8 74.3- 0.0 1.7---- 0.0------------
1961-06-29 14.8 18.6 10.3 8.6 82.8- 4.3 2.7---- 0.0------------
1961-06-28 14.6 20.0 13.2 14.9 79.0- 4.7 4.0---- 3.2------------
1961-06-27 23.1 32.7 16.3 15.1 72.5- 3.3 4.3---- 10.5------------
1961-06-26 22.7 28.5 16.5 12.7 70.5- 3.7 1.7---- 0.0------------
1961-06-25 21.8 27.5 15.3 12.2 66.5- 1.7 4.0---- 0.0------------
1961-06-24 18.0 23.2 12.9 11.0 69.3- 4.0 3.3---- 0.0------------
1961-06-23 17.4 23.7 14.3 14.0 77.5- 5.0 1.3---- 0.0------------
1961-06-22 16.3 21.5 9.2 8.0 65.8- 3.3 2.3---- 10.2------------
1961-06-21 15.7 23.3 5.7 4.7 73.8- 3.0 2.3---- 6.3------------
1961-06-20 13.8 19.5 8.5 6.0 74.8- 1.0 2.0---- 0.0------------
1961-06-19 15.6 21.3 13.4 16.1 82.8- 5.3 1.7---- 0.0------------
1961-06-18 20.2 26.4 14.0 11.8 66.3- 4.7 1.7---- 0.0------------
1961-06-17 16.6 22.5 8.7 6.5 74.8- 4.3 3.0---- 0.0------------
1961-06-16 12.5 17.0 10.8 10.5 87.0- 7.3 3.3---- 0.0------------
318.9 ms

 

Źródłem pochodzenia danych jest Instytut Meteorologii i Gospodarki Wodnej – Państwowy Instytut Badawczy. Dane Instytutu Meteorologii i Gospodarki Wodnej – Państwowego Instytutu Badawczego zostały przetworzone.

Dane źródłowe można odnaleźć na stronie https://dane.imgw.pl